Time;durP1;ratioP1;P1;durP2;ratioP2;P2;SDS_P1;SDS_P2;PMS_P1;PMS_P2;Temp;Humidity;BMP_temperature;BMP_pressure;BME280_temperature;BME280_humidity;BME280_pressure;Samples;Min_cycle;Max_cycle;Signal;HPM_P1;HPM_P2
2022/03/17 00:01:17;;;;;;;23.73;15.60;;;10.70;99.90;;;;;;6243110;23;20070;-84
2022/03/17 00:07:24;;;;;;;26.65;16.58;;;10.60;99.90;;;;;;6242827;23;20023;-80
2022/03/17 00:09:50;;;;;;;26.58;15.90;;;11.10;99.90;;;;;;6240602;23;20337;-80
2022/03/17 00:12:19;;;;;;;23.95;16.02;;;10.60;99.90;;;;;;6242894;23;20012;-82
2022/03/17 00:14:45;;;;;;;27.35;15.85;;;10.60;99.90;;;;;;6215852;23;20012;-80
2022/03/17 00:17:11;;;;;;;26.70;16.67;;;10.60;99.90;;;;;;6243024;23;20012;-80
2022/03/17 00:19:37;;;;;;;33.08;16.20;;;10.60;99.90;;;;;;6243330;23;20020;-83
2022/03/17 00:22:08;;;;;;;27.33;16.00;;;11.10;99.90;;;;;;6242815;22;20016;-82
2022/03/17 00:24:35;;;;;;;25.10;15.73;;;10.60;99.90;;;;;;6243375;23;20046;-81
2022/03/17 00:27:02;;;;;;;25.23;15.90;;;11.00;99.90;;;;;;6241039;23;20016;-81
2022/03/17 00:29:28;;;;;;;27.83;16.38;;;10.60;99.90;;;;;;6241158;23;20303;-83
2022/03/17 00:31:53;;;;;;;26.05;16.38;;;10.60;99.90;;;;;;6241347;23;20063;-80
2022/03/17 00:34:19;;;;;;;24.13;16.42;;;10.60;99.90;;;;;;6243223;22;20099;-82
2022/03/17 00:36:47;;;;;;;25.95;16.73;;;10.60;99.90;;;;;;6216040;23;20024;-81
2022/03/17 00:39:15;;;;;;;25.05;16.83;;;10.90;99.90;;;;;;6242827;23;20023;-80
2022/03/17 00:41:55;;;;;;;25.88;16.67;;;10.60;99.90;;;;;;6239964;23;20102;-83
2022/03/17 00:44:21;;;;;;;26.67;16.30;;;10.70;99.90;;;;;;6242802;23;20026;-83
2022/03/17 00:51:57;;;;;;;23.95;16.50;;;10.60;99.90;;;;;;6242542;23;20030;-83
2022/03/17 00:54:09;;;;;;;25.33;17.67;;;10.60;99.90;;;;;;6239471;22;20396;-83
2022/03/17 00:56:35;;;;;;;26.05;17.20;;;10.60;99.90;;;;;;6242758;23;20091;-82
2022/03/17 00:59:01;;;;;;;26.10;17.13;;;10.90;99.90;;;;;;6240583;23;20020;-83
2022/03/17 01:01:26;;;;;;;26.80;16.48;;;10.60;99.90;;;;;;6215030;23;20107;-83
2022/03/17 01:03:52;;;;;;;26.45;17.52;;;10.60;99.90;;;;;;6242970;23;20067;-83
2022/03/17 01:06:18;;;;;;;28.48;16.80;;;10.60;99.90;;;;;;6240590;23;20016;-81
2022/03/17 01:08:43;;;;;;;28.55;16.70;;;11.20;99.90;;;;;;6242469;23;20020;-83
2022/03/17 01:11:09;;;;;;;25.45;17.48;;;10.50;99.90;;;;;;6242532;23;20031;-80
2022/03/17 01:13:35;;;;;;;27.58;17.38;;;11.00;99.90;;;;;;6242478;23;20031;-82
2022/03/17 01:16:00;;;;;;;26.17;16.67;;;11.00;99.90;;;;;;6242191;23;20019;-81
2022/03/17 01:18:26;;;;;;;27.35;17.30;;;10.90;99.90;;;;;;6242169;23;20027;-83
2022/03/17 01:20:52;;;;;;;29.75;18.17;;;10.60;99.90;;;;;;6242527;23;20016;-83
2022/03/17 01:23:18;;;;;;;26.90;19.40;;;11.30;99.90;;;;;;6242203;23;20016;-83
2022/03/17 01:25:44;;;;;;;26.98;16.73;;;10.60;99.90;;;;;;6242688;23;20376;-81
2022/03/17 01:28:10;;;;;;;26.52;17.67;;;10.80;99.90;;;;;;6241828;23;20070;-84
2022/03/17 01:30:36;;;;;;;29.83;18.30;;;11.40;99.90;;;;;;6215342;23;20017;-82
2022/03/17 01:33:02;;;;;;;25.98;17.88;;;10.70;99.90;;;;;;6242744;23;20026;-82
2022/03/17 01:35:28;;;;;;;29.63;17.83;;;11.30;99.90;;;;;;6242807;23;20016;-81
2022/03/17 01:37:54;;;;;;;27.55;18.77;;;10.60;99.90;;;;;;6240576;23;20023;-81
2022/03/17 01:40:20;;;;;;;27.80;18.98;;;11.10;99.90;;;;;;6240417;23;20024;-83
2022/03/17 01:42:46;;;;;;;28.63;18.00;;;10.70;99.90;;;;;;6242434;23;20105;-81
2022/03/17 01:45:12;;;;;;;25.08;17.55;;;10.90;99.90;;;;;;6241942;23;20052;-82
2022/03/17 01:47:38;;;;;;;25.77;17.92;;;10.70;99.90;;;;;;6242009;23;20507;-82
2022/03/17 01:50:15;;;;;;;34.75;19.00;;;10.70;99.90;;;;;;6214835;23;20018;-82
2022/03/17 01:52:42;;;;;;;25.13;17.67;;;10.70;99.90;;;;;;6239482;23;20467;-82
2022/03/17 01:55:09;;;;;;;32.03;18.88;;;10.60;99.90;;;;;;6242322;23;20070;-83
2022/03/17 01:57:35;;;;;;;28.50;19.00;;;10.60;99.90;;;;;;6240193;23;20024;-83
2022/03/17 02:00:04;;;;;;;27.55;17.63;;;10.60;99.90;;;;;;6241725;23;20016;-81
2022/03/17 02:02:30;;;;;;;26.90;17.27;;;10.60;99.90;;;;;;6242025;23;20055;-81
2022/03/17 02:04:55;;;;;;;30.27;18.98;;;10.90;99.90;;;;;;6241885;23;20020;-81
2022/03/17 02:07:21;;;;;;;26.60;18.23;;;10.60;99.90;;;;;;6241632;23;20387;-83
2022/03/17 02:09:50;;;;;;;29.27;18.90;;;11.10;99.90;;;;;;6241710;23;20337;-83
2022/03/17 02:15:05;;;;;;;30.48;19.40;;;10.80;99.90;;;;;;6241627;23;20085;-81
2022/03/17 02:17:33;;;;;;;29.90;20.08;;;10.60;99.90;;;;;;6241878;23;20035;-80
2022/03/17 02:20:00;;;;;;;26.90;19.08;;;11.00;99.90;;;;;;6241414;23;20773;-82
2022/03/17 02:22:28;;;;;;;28.77;18.77;;;10.50;99.90;;;;;;6214534;23;20024;-82
2022/03/17 02:27:45;;;;;;;29.77;19.75;;;11.10;99.90;;;;;;6241644;23;20032;-82
2022/03/17 02:30:13;;;;;;;27.65;19.45;;;10.60;99.90;;;;;;6240942;23;20087;-81
2022/03/17 02:32:39;;;;;;;29.40;19.48;;;10.50;99.90;;;;;;6241750;23;20012;-82
2022/03/17 02:35:12;;;;;;;28.55;18.58;;;10.50;99.90;;;;;;6241900;23;20026;-81
2022/03/17 02:37:37;;;;;;;29.52;19.98;;;10.40;99.90;;;;;;6215043;23;20025;-82
2022/03/17 02:40:06;;;;;;;28.13;19.00;;;10.40;99.90;;;;;;6239001;23;20020;-80
2022/03/17 02:42:32;;;;;;;32.90;19.88;;;10.40;99.90;;;;;;6238959;23;20027;-83
2022/03/17 02:44:59;;;;;;;31.75;19.80;;;10.50;99.90;;;;;;6241586;23;20020;-80
2022/03/17 02:47:26;;;;;;;28.23;19.38;;;10.70;99.90;;;;;;6239434;23;20059;-82
2022/03/17 02:49:55;;;;;;;29.30;20.23;;;10.90;99.90;;;;;;6241463;23;20055;-81
2022/03/17 02:52:23;;;;;;;30.85;20.90;;;11.00;99.90;;;;;;6241568;23;20413;-82
2022/03/17 02:54:49;;;;;;;28.55;18.88;;;11.00;99.90;;;;;;6241390;23;20409;-81
2022/03/17 02:57:16;;;;;;;31.23;20.38;;;10.50;99.90;;;;;;6241875;23;20051;-81
2022/03/17 02:59:42;;;;;;;29.50;20.63;;;10.90;99.90;;;;;;6241234;23;20023;-81
2022/03/17 03:02:07;;;;;;;28.85;20.88;;;10.30;99.90;;;;;;6241311;23;20074;-81
2022/03/17 03:04:33;;;;;;;28.92;20.45;;;10.60;99.90;;;;;;6243061;23;20364;-79
2022/03/17 03:07:02;;;;;;;27.33;20.27;;;10.30;99.90;;;;;;6243754;23;20055;-81
2022/03/17 03:09:29;;;;;;;29.52;19.67;;;10.30;99.90;;;;;;6243425;23;20348;-82
2022/03/17 03:11:55;;;;;;;36.05;20.85;;;10.90;99.90;;;;;;6243315;23;20520;-82
2022/03/17 03:14:21;;;;;;;30.52;20.08;;;11.10;99.90;;;;;;6243377;23;20027;-78
2022/03/17 03:16:48;;;;;;;30.92;20.20;;;10.40;99.90;;;;;;6243030;23;20020;-81
2022/03/17 03:19:14;;;;;;;28.63;21.15;;;10.70;99.90;;;;;;6240945;23;20463;-81
2022/03/17 03:21:39;;;;;;;29.55;20.27;;;11.00;99.90;;;;;;6243356;23;20013;-82
2022/03/17 03:24:05;;;;;;;28.75;20.50;;;10.70;99.90;;;;;;6243701;23;20023;-82
2022/03/17 03:26:31;;;;;;;27.67;20.00;;;10.40;99.90;;;;;;6241363;23;20027;-82
2022/03/17 03:28:57;;;;;;;30.90;20.05;;;10.30;99.90;;;;;;6243255;23;20012;-81
2022/03/17 03:31:23;;;;;;;31.25;20.27;;;10.30;99.90;;;;;;6242812;23;20063;-79
2022/03/17 03:33:50;;;;;;;27.92;19.38;;;10.70;99.90;;;;;;6243023;23;20334;-82
2022/03/17 03:39:01;;;;;;;28.27;19.92;;;10.50;99.90;;;;;;6242842;22;20043;-80
2022/03/17 03:41:26;;;;;;;28.85;20.02;;;10.40;99.90;;;;;;6243296;22;20020;-82
2022/03/17 03:43:52;;;;;;;30.88;21.23;;;11.10;99.90;;;;;;6242825;23;20016;-82
2022/03/17 03:46:18;;;;;;;31.25;20.85;;;10.50;99.90;;;;;;6242749;23;20070;-81
2022/03/17 03:48:44;;;;;;;30.08;22.38;;;10.40;99.90;;;;;;6240842;23;20027;-81
2022/03/17 03:51:09;;;;;;;31.52;22.13;;;10.60;99.90;;;;;;6241171;23;20030;-79
2022/03/17 03:56:19;;;;;;;33.40;22.55;;;10.30;99.90;;;;;;6243069;23;20031;-79
2022/03/17 03:58:45;;;;;;;34.22;24.08;;;10.50;99.90;;;;;;6243036;23;20446;-80
2022/03/17 04:01:10;;;;;;;35.28;24.50;;;10.50;99.90;;;;;;6240538;23;20096;-83
2022/03/17 04:03:36;;;;;;;36.25;24.67;;;10.50;99.90;;;;;;6241211;23;20022;-79
2022/03/17 04:06:02;;;;;;;36.28;26.35;;;10.20;99.90;;;;;;6242847;23;20016;-80
2022/03/17 04:08:28;;;;;;;34.83;24.35;;;10.10;99.90;;;;;;6240719;23;20027;-78
2022/03/17 04:10:53;;;;;;;36.58;25.55;;;10.10;99.90;;;;;;6242464;23;20087;-79
2022/03/17 04:13:19;;;;;;;37.08;25.13;;;10.80;99.90;;;;;;6242767;23;20016;-79
2022/03/17 04:15:44;;;;;;;37.03;26.60;;;10.00;99.90;;;;;;6242786;23;20020;-80
2022/03/17 04:18:10;;;;;;;39.08;27.70;;;9.90;99.90;;;;;;6240478;23;20055;-79
2022/03/17 04:20:36;;;;;;;37.33;26.48;;;9.90;99.90;;;;;;6242965;23;20016;-78
2022/03/17 04:23:01;;;;;;;39.33;27.85;;;9.90;99.90;;;;;;6241204;23;20027;-78
2022/03/17 04:25:27;;;;;;;41.75;28.83;;;9.90;99.90;;;;;;6243042;23;20020;-79
2022/03/17 04:27:52;;;;;;;40.05;28.85;;;9.80;99.90;;;;;;6240771;23;20099;-78
2022/03/17 04:30:18;;;;;;;45.22;28.65;;;10.10;99.90;;;;;;6242427;23;20344;-79
2022/03/17 04:32:44;;;;;;;41.13;29.33;;;10.50;99.90;;;;;;6242413;23;20393;-78
2022/03/17 04:35:10;;;;;;;41.25;29.35;;;9.70;99.90;;;;;;6242232;22;20063;-79
2022/03/17 04:37:36;;;;;;;49.70;30.60;;;9.70;99.90;;;;;;6242349;23;20020;-77
2022/03/17 04:40:05;;;;;;;48.05;30.70;;;9.70;99.90;;;;;;6242236;23;20016;-79
2022/03/17 04:42:31;;;;;;;47.13;33.55;;;9.70;99.90;;;;;;6242414;23;20026;-80
2022/03/17 04:44:57;;;;;;;44.90;31.20;;;9.80;99.90;;;;;;6242778;23;20500;-80
2022/03/17 04:47:23;;;;;;;46.38;31.35;;;10.10;99.90;;;;;;6242716;23;20016;-84
2022/03/17 04:49:49;;;;;;;52.22;33.25;;;10.00;99.90;;;;;;6242066;22;20340;-80
2022/03/17 04:54:59;;;;;;;49.90;31.57;;;10.00;99.90;;;;;;6242323;23;20440;-81
2022/03/17 04:57:26;;;;;;;48.60;30.52;;;9.60;99.90;;;;;;6242353;23;20255;-79
2022/03/17 04:59:52;;;;;;;28.20;16.75;;;9.60;99.90;;;;;;6242544;23;20031;-79
2022/03/17 05:02:17;;;;;;;11.93;7.65;;;9.50;99.90;;;;;;6241974;23;20024;-79
2022/03/17 05:04:43;;;;;;;13.48;9.20;;;9.40;99.90;;;;;;6242277;23;20055;-83
2022/03/17 05:07:08;;;;;;;14.80;8.40;;;9.20;99.90;;;;;;6241481;23;20024;-82
2022/03/17 05:09:34;;;;;;;11.65;8.15;;;9.60;99.90;;;;;;6241965;23;20012;-78
2022/03/17 05:12:00;;;;;;;12.82;8.20;;;9.70;99.90;;;;;;6242150;23;20019;-79
2022/03/17 05:14:25;;;;;;;10.13;6.95;;;9.60;99.90;;;;;;6240376;23;20020;-78
2022/03/17 05:16:51;;;;;;;9.82;6.63;;;8.50;99.90;;;;;;6242365;23;20019;-77
2022/03/17 05:19:17;;;;;;;9.75;7.40;;;8.90;99.90;;;;;;6242146;23;20460;-78
2022/03/17 05:21:44;;;;;;;12.55;7.55;;;8.40;99.90;;;;;;6239825;23;20095;-79
2022/03/17 05:24:10;;;;;;;10.38;7.20;;;8.40;99.90;;;;;;6242278;23;20452;-80
2022/03/17 05:26:36;;;;;;;11.85;6.13;;;8.30;99.90;;;;;;6239719;23;20020;-79
2022/03/17 05:29:01;;;;;;;10.93;6.47;;;8.80;99.90;;;;;;6239989;23;20081;-78
2022/03/17 05:31:27;;;;;;;11.43;6.72;;;8.10;99.90;;;;;;6239718;23;20453;-83
2022/03/17 05:33:53;;;;;;;11.57;6.85;;;8.20;99.90;;;;;;6242292;23;20020;-80
2022/03/17 05:36:19;;;;;;;14.38;8.45;;;8.40;99.90;;;;;;6242176;22;20392;-81
2022/03/17 05:38:44;;;;;;;16.63;9.18;;;8.00;99.90;;;;;;6241609;22;20023;-81
2022/03/17 05:41:10;;;;;;;19.70;10.00;;;8.00;99.90;;;;;;6241678;23;20016;-82
2022/03/17 05:43:36;;;;;;;19.80;9.93;;;7.90;99.90;;;;;;6242129;23;20016;-79
2022/03/17 05:46:03;;;;;;;19.17;10.38;;;8.30;99.90;;;;;;6242196;23;20020;-77
2022/03/17 05:48:28;;;;;;;23.48;9.95;;;7.90;99.90;;;;;;6242198;23;20070;-79
2022/03/17 05:50:54;;;;;;;18.20;10.10;;;7.80;99.90;;;;;;6241887;23;20087;-80
2022/03/17 05:53:19;;;;;;;24.83;11.02;;;7.80;99.90;;;;;;6241941;22;20519;-79
2022/03/17 05:55:45;;;;;;;22.20;10.50;;;8.10;99.90;;;;;;6242526;23;20019;-81
2022/03/17 05:58:11;;;;;;;19.17;10.88;;;7.80;99.90;;;;;;6242212;23;20009;-78
2022/03/17 06:00:36;;;;;;;21.52;11.07;;;8.50;99.90;;;;;;6241712;23;20024;-80
2022/03/17 06:03:04;;;;;;;32.08;11.63;;;7.70;99.90;;;;;;6242197;22;20016;-78
2022/03/17 06:05:29;;;;;;;22.02;10.65;;;8.20;99.90;;;;;;6241754;23;20380;-77
2022/03/17 06:08:00;;;;;;;24.15;12.18;;;7.70;99.90;;;;;;6241659;23;20023;-80
2022/03/17 06:10:28;;;;;;;25.33;9.00;;;7.70;99.90;;;;;;6241403;23;20535;-78
2022/03/17 06:12:55;;;;;;;23.73;6.68;;;8.50;99.90;;;;;;6242122;23;20020;-80
2022/03/17 06:15:23;;;;;;;17.05;5.88;;;8.30;99.90;;;;;;6241974;23;20016;-78
2022/03/17 06:17:51;;;;;;;17.42;5.82;;;7.60;99.90;;;;;;6242053;22;20016;-79
2022/03/17 06:20:19;;;;;;;17.00;5.05;;;7.60;99.90;;;;;;6241441;23;20051;-78
2022/03/17 06:22:48;;;;;;;20.65;4.70;;;8.30;99.90;;;;;;6241742;23;20448;-80
2022/03/17 06:25:15;;;;;;;19.65;4.75;;;8.30;99.90;;;;;;6241979;23;20031;-80
2022/03/17 06:27:43;;;;;;;20.83;4.90;;;7.60;99.90;;;;;;6240143;23;20437;-76
2022/03/17 06:30:11;;;;;;;24.60;6.18;;;7.60;99.90;;;;;;6241967;23;20622;-78
2022/03/17 06:32:40;;;;;;;19.50;4.72;;;7.50;99.90;;;;;;6241988;22;20032;-79
2022/03/17 06:35:07;;;;;;;15.20;4.45;;;8.10;99.90;;;;;;6241756;23;20016;-77
2022/03/17 06:37:33;;;;;;;22.40;4.75;;;7.50;99.90;;;;;;6241764;23;20078;-78
2022/03/17 06:39:58;;;;;;;18.63;3.67;;;7.50;99.90;;;;;;6242697;23;20024;-78
2022/03/17 06:42:24;;;;;;;17.35;3.45;;;7.50;99.90;;;;;;6241757;23;20059;-78
2022/03/17 06:44:50;;;;;;;13.10;3.35;;;7.50;99.90;;;;;;6243432;23;20649;-81
2022/03/17 06:47:15;;;;;;;9.43;3.00;;;8.20;99.90;;;;;;6243929;22;20016;-81
2022/03/17 06:49:41;;;;;;;14.13;2.67;;;7.40;99.90;;;;;;6243565;23;20494;-79
2022/03/17 06:52:06;;;;;;;9.27;2.67;;;7.30;99.90;;;;;;6241913;23;20027;-80
2022/03/17 06:54:32;;;;;;;10.90;2.22;;;8.10;99.90;;;;;;6241568;23;20083;-79
2022/03/17 06:56:59;;;;;;;10.15;2.25;;;7.30;99.90;;;;;;6243570;23;20038;-80
2022/03/17 06:59:25;;;;;;;11.68;2.75;;;7.30;99.90;;;;;;6243363;23;20574;-80
2022/03/17 07:01:50;;;;;;;13.18;2.60;;;7.30;99.90;;;;;;6243422;23;20028;-80
2022/03/17 07:04:16;;;;;;;10.23;2.63;;;7.90;99.90;;;;;;6243685;23;20027;-79
2022/03/17 07:06:42;;;;;;;9.85;2.25;;;7.40;99.90;;;;;;6243897;23;20038;-80
2022/03/17 07:09:07;;;;;;;15.32;2.50;;;7.70;99.90;;;;;;6244084;23;20310;-81
2022/03/17 07:11:33;;;;;;;14.25;2.55;;;7.70;99.90;;;;;;6243157;23;20031;-79
2022/03/17 07:13:59;;;;;;;13.30;1.98;;;7.50;99.90;;;;;;6241636;23;20092;-79
2022/03/17 07:16:24;;;;;;;15.93;2.97;;;7.90;99.90;;;;;;6243443;23;20039;-79
2022/03/17 07:18:50;;;;;;;13.48;2.10;;;8.00;99.90;;;;;;6243533;23;20243;-80
2022/03/17 07:21:16;;;;;;;15.15;2.60;;;8.20;99.90;;;;;;6243484;23;20016;-79
2022/03/17 07:23:42;;;;;;;17.00;3.00;;;7.30;99.90;;;;;;6243164;23;20025;-78
2022/03/17 07:26:08;;;;;;;14.38;1.88;;;7.80;99.90;;;;;;6243137;23;20020;-78
2022/03/17 07:28:34;;;;;;;14.38;2.22;;;8.00;99.90;;;;;;6243414;23;20031;-81
2022/03/17 07:30:59;;;;;;;10.25;1.90;;;7.30;99.90;;;;;;6242803;23;20016;-81
2022/03/17 07:33:25;;;;;;;14.43;1.90;;;7.30;99.90;;;;;;6243372;23;20024;-78
2022/03/17 07:35:50;;;;;;;13.38;3.05;;;7.30;99.90;;;;;;6243462;23;20019;-77
2022/03/17 07:38:16;;;;;;;17.55;2.40;;;7.40;99.90;;;;;;6243070;22;20023;-79
2022/03/17 07:40:45;;;;;;;13.40;2.28;;;7.20;99.90;;;;;;6243112;23;20016;-79
2022/03/17 07:43:11;;;;;;;21.52;3.33;;;7.20;99.90;;;;;;6242925;23;20027;-76
2022/03/17 07:45:37;;;;;;;17.38;2.90;;;7.30;99.90;;;;;;6242711;22;20095;-80
2022/03/17 07:48:05;;;;;;;13.88;2.28;;;7.20;99.90;;;;;;6243008;23;20012;-77
2022/03/17 07:50:32;;;;;;;22.08;2.40;;;7.20;99.90;;;;;;6242649;23;20020;-78
2022/03/17 07:52:58;;;;;;;16.90;1.90;;;8.10;99.90;;;;;;6242567;23;20441;-76
2022/03/17 07:55:24;;;;;;;14.88;2.13;;;7.20;99.90;;;;;;6243240;23;20024;-80
2022/03/17 07:57:49;;;;;;;13.55;2.28;;;8.10;99.90;;;;;;6242643;23;20101;-78
2022/03/17 08:00:15;;;;;;;13.35;1.95;;;7.30;99.90;;;;;;6242966;22;20064;-77
2022/03/17 08:02:42;;;;;;;19.52;2.33;;;7.30;99.90;;;;;;6243258;23;20394;-80
2022/03/17 08:05:12;;;;;;;13.82;2.30;;;7.30;99.90;;;;;;6243211;23;20016;-80
2022/03/17 08:07:38;;;;;;;15.45;2.20;;;7.30;99.90;;;;;;6242703;23;20449;-82
2022/03/17 08:10:04;;;;;;;18.23;2.13;;;7.30;99.90;;;;;;6242831;23;20020;-81
2022/03/17 08:12:31;;;;;;;11.98;2.10;;;7.30;99.90;;;;;;6242614;23;20109;-81
2022/03/17 08:15:01;;;;;;;13.63;2.55;;;7.60;99.90;;;;;;6216000;23;20024;-78
2022/03/17 08:17:28;;;;;;;17.48;2.78;;;7.30;99.90;;;;;;6243262;23;20015;-79
2022/03/17 08:19:53;;;;;;;20.48;2.30;;;8.00;99.90;;;;;;6243319;23;20048;-78
2022/03/17 08:22:20;;;;;;;18.45;1.95;;;7.30;99.90;;;;;;6243410;23;20031;-81
2022/03/17 08:24:45;;;;;;;23.85;3.13;;;7.50;99.90;;;;;;6243228;23;20012;-80
2022/03/17 08:27:11;;;;;;;21.58;2.63;;;7.30;99.90;;;;;;6240899;23;20096;-80
2022/03/17 08:29:38;;;;;;;14.73;2.28;;;7.30;99.90;;;;;;6242259;23;20044;-79
2022/03/17 08:32:05;;;;;;;15.30;2.53;;;8.00;99.90;;;;;;6243053;23;20142;-79
2022/03/17 08:34:32;;;;;;;9.60;1.63;;;7.30;99.90;;;;;;6242876;23;20023;-80
2022/03/17 08:36:59;;;;;;;11.80;1.85;;;7.30;99.90;;;;;;6242875;23;20027;-78
2022/03/17 08:39:25;;;;;;;14.32;2.28;;;7.30;99.90;;;;;;6242195;23;20017;-79
2022/03/17 08:41:52;;;;;;;15.75;1.65;;;7.30;99.90;;;;;;6242527;23;20020;-80
2022/03/17 08:44:18;;;;;;;14.75;1.98;;;7.20;99.90;;;;;;6240534;23;20024;-78
2022/03/17 08:49:28;;;;;;;23.95;2.65;;;7.20;99.90;;;;;;6239783;23;20027;-79
2022/03/17 08:51:57;;;;;;;23.30;2.28;;;7.90;99.90;;;;;;6243068;22;20024;-79
2022/03/17 08:54:25;;;;;;;28.48;2.38;;;7.10;99.90;;;;;;6242967;23;20016;-79
2022/03/17 08:57:01;;;;;;;19.48;2.40;;;7.50;99.90;;;;;;6242667;23;20024;-80
2022/03/17 08:59:32;;;;;;;13.35;2.20;;;8.10;99.90;;;;;;6215009;23;20024;-78
2022/03/17 09:02:03;;;;;;;18.92;3.35;;;8.00;99.90;;;;;;6242479;23;20023;-79
2022/03/17 09:04:29;;;;;;;21.20;2.78;;;7.40;99.90;;;;;;6242265;23;20027;-78
2022/03/17 09:07:01;;;;;;;15.60;2.22;;;8.00;99.90;;;;;;6242149;22;20126;-77
2022/03/17 09:09:28;;;;;;;18.35;2.88;;;7.40;99.90;;;;;;6241926;23;20100;-77
2022/03/17 09:11:54;;;;;;;13.98;1.95;;;7.40;99.90;;;;;;6242335;23;20020;-78
2022/03/17 09:14:20;;;;;;;12.52;2.33;;;7.40;99.90;;;;;;6242359;23;20079;-77
2022/03/17 09:16:46;;;;;;;18.17;2.47;;;7.70;99.90;;;;;;6241975;23;20129;-83
2022/03/17 09:19:12;;;;;;;16.95;2.55;;;7.70;99.90;;;;;;6242603;23;20016;-77
2022/03/17 09:21:38;;;;;;;15.82;2.20;;;8.20;99.90;;;;;;6240297;23;20031;-76
2022/03/17 09:24:04;;;;;;;17.63;3.42;;;8.20;99.90;;;;;;6242018;23;20012;-79
2022/03/17 09:26:33;;;;;;;28.77;3.30;;;7.50;99.90;;;;;;6242227;23;20026;-80
2022/03/17 09:28:59;;;;;;;15.32;2.20;;;7.50;99.90;;;;;;6241888;23;20433;-78
2022/03/17 09:31:26;;;;;;;23.50;3.05;;;7.60;99.90;;;;;;6241736;22;20023;-81
2022/03/17 09:33:52;;;;;;;16.38;2.53;;;7.80;99.90;;;;;;6241951;23;20119;-78
2022/03/17 09:36:18;;;;;;;17.52;2.53;;;8.00;99.90;;;;;;6240016;23;20051;-78
2022/03/17 09:38:44;;;;;;;15.52;2.65;;;8.70;99.90;;;;;;6241859;23;20459;-80
2022/03/17 09:41:32;;;;;;;17.05;2.13;;;8.40;99.90;;;;;;6241624;23;20008;-78
2022/03/17 09:43:58;;;;;;;16.23;2.33;;;8.40;99.90;;;;;;6241855;23;20046;-79
2022/03/17 09:46:26;;;;;;;13.73;2.13;;;8.40;99.90;;;;;;6242118;22;20009;-79
2022/03/17 09:48:54;;;;;;;20.02;2.50;;;8.40;99.90;;;;;;6242454;23;20023;-79
2022/03/17 09:51:26;;;;;;;16.88;2.10;;;9.30;99.90;;;;;;6242061;23;20016;-82
2022/03/17 09:53:53;;;;;;;18.48;2.08;;;8.60;99.90;;;;;;6242096;23;20016;-79
2022/03/17 09:56:23;;;;;;;14.38;2.08;;;9.20;99.90;;;;;;6241736;23;20024;-78
2022/03/17 09:58:53;;;;;;;11.13;1.83;;;8.60;99.90;;;;;;6241798;23;20012;-80
2022/03/17 10:01:20;;;;;;;15.73;2.15;;;8.70;99.90;;;;;;6241756;23;20091;-79
2022/03/17 10:03:46;;;;;;;17.40;2.90;;;8.80;99.90;;;;;;6241779;23;20747;-80
2022/03/17 10:06:14;;;;;;;16.85;1.98;;;9.80;99.90;;;;;;6241891;23;20029;-82
2022/03/17 10:08:48;;;;;;;12.00;1.88;;;10.00;99.90;;;;;;6241958;23;20016;-81
2022/03/17 10:11:15;;;;;;;13.00;2.20;;;9.70;99.90;;;;;;6240070;23;20023;-82
2022/03/17 10:13:46;;;;;;;15.60;2.13;;;10.40;99.90;;;;;;6241328;23;20201;-83
2022/03/17 10:16:17;;;;;;;15.85;2.08;;;9.90;99.90;;;;;;6242178;23;20341;-82
2022/03/17 10:18:45;;;;;;;14.07;1.90;;;9.70;99.90;;;;;;6241502;23;20354;-82
2022/03/17 10:21:24;;;;;;;11.75;1.45;;;9.80;99.90;;;;;;6241504;23;20020;-79
2022/03/17 10:23:55;;;;;;;19.63;3.03;;;10.20;99.90;;;;;;6241856;23;20016;-81
2022/03/17 10:26:40;;;;;;;19.08;1.83;;;10.10;99.90;;;;;;6239990;23;20444;-80
2022/03/17 10:29:07;;;;;;;11.07;1.70;;;10.10;99.90;;;;;;6241993;23;20026;-81
2022/03/17 10:32:09;;;;;;;9.85;1.85;;;10.50;99.90;;;;;;6241424;23;20526;-82
2022/03/17 10:34:56;;;;;;;19.17;1.80;;;10.40;99.90;;;;;;6240475;23;20461;-80
2022/03/17 10:37:24;;;;;;;9.32;1.48;;;10.50;99.90;;;;;;6241777;22;20016;-83
2022/03/17 10:39:57;;;;;;;9.90;1.70;;;10.40;99.90;;;;;;6241224;22;20070;-81
2022/03/17 10:42:28;;;;;;;16.70;2.33;;;10.60;99.90;;;;;;6241732;23;20016;-80
2022/03/17 10:44:59;;;;;;;12.73;1.63;;;10.50;99.90;;;;;;6241823;23;20016;-81
2022/03/17 10:47:33;;;;;;;12.95;1.85;;;10.40;99.90;;;;;;6241802;23;20017;-80
2022/03/17 10:50:16;;;;;;;16.13;2.03;;;10.20;99.90;;;;;;6241035;22;20397;-82
2022/03/17 10:52:50;;;;;;;15.43;2.42;;;10.10;99.90;;;;;;6241438;23;20441;-79
2022/03/17 10:55:21;;;;;;;;;;;10.60;99.90;;;;;;6242476;23;20437;-81
2022/03/17 10:57:50;;;;;;;13.68;2.08;;;10.00;99.90;;;;;;6240212;23;19920;-81
2022/03/17 11:00:21;;;;;;;16.90;2.30;;;9.90;99.90;;;;;;6239257;23;20520;-79
2022/03/17 11:06:03;;;;;;;12.63;2.13;;;10.10;99.90;;;;;;6239356;23;20024;-81
2022/03/17 11:08:46;;;;;;;11.43;1.90;;;10.30;99.90;;;;;;6207521;23;20473;-80
2022/03/17 11:11:12;;;;;;;18.85;2.38;;;10.30;99.90;;;;;;6182722;23;20017;-82
2022/03/17 11:13:40;;;;;;;13.52;2.08;;;11.20;99.90;;;;;;6208423;23;20497;-82
2022/03/17 11:16:09;;;;;;;13.90;2.45;;;10.90;99.90;;;;;;6208115;23;20024;-80
2022/03/17 11:18:40;;;;;;;16.20;2.42;;;10.70;99.90;;;;;;6207883;23;20458;-81
2022/03/17 11:21:19;;;;;;;14.32;2.10;;;10.50;99.90;;;;;;6207630;23;20035;-80
2022/03/17 11:23:56;;;;;;;17.30;2.67;;;10.40;99.90;;;;;;6207732;23;20511;-80
2022/03/17 11:26:34;;;;;;;13.52;2.58;;;10.80;99.90;;;;;;6209583;23;20024;-82
2022/03/17 11:29:05;;;;;;;10.60;2.40;;;10.30;99.90;;;;;;6209557;23;20349;-79
2022/03/17 11:31:55;;;;;;;12.07;2.20;;;10.40;99.90;;;;;;6209602;23;20024;-83
2022/03/17 11:34:39;;;;;;;12.20;2.30;;;10.10;99.90;;;;;;6209545;23;20084;-81
2022/03/17 11:37:17;;;;;;;16.73;2.67;;;10.50;99.90;;;;;;6209732;23;20367;-83
2022/03/17 11:40:06;;;;;;;14.13;2.33;;;10.30;99.90;;;;;;6229145;23;20442;-84
2022/03/17 11:42:42;;;;;;;11.45;1.88;;;10.30;99.90;;;;;;6243436;23;20020;-83
2022/03/17 11:45:14;;;;;;;11.65;2.00;;;10.40;99.90;;;;;;6242734;23;20016;-82
2022/03/17 11:47:45;;;;;;;10.10;2.00;;;10.60;99.90;;;;;;6241420;23;20027;-81
2022/03/17 11:50:33;;;;;;;14.23;1.95;;;11.10;99.90;;;;;;6242844;23;20677;-80
2022/03/17 11:53:02;;;;;;;13.82;2.22;;;11.10;99.90;;;;;;6240967;23;20024;-83
2022/03/17 11:55:34;;;;;;;9.75;1.95;;;11.10;99.90;;;;;;6215606;23;20024;-83
2022/03/17 11:58:25;;;;;;;11.48;2.40;;;11.30;99.90;;;;;;6242575;23;20070;-84
2022/03/17 12:00:53;;;;;;;11.95;1.80;;;11.70;99.90;;;;;;6242571;23;20071;-82
2022/03/17 12:03:42;;;;;;;15.98;3.00;;;12.10;99.90;;;;;;6243036;22;20039;-84
2022/03/17 12:06:22;;;;;;;13.77;2.67;;;11.60;99.90;;;;;;6232342;22;20115;-83
2022/03/17 12:08:52;;;;;;;14.15;2.15;;;12.20;99.90;;;;;;6241223;23;20016;-82
2022/03/17 12:11:22;;;;;;;10.90;1.70;;;12.00;99.90;;;;;;6242720;23;20832;-81
2022/03/17 12:14:34;;;;;;;9.50;1.95;;;12.30;99.90;;;;;;6243128;23;20058;-82
2022/03/17 12:17:16;;;;;;;13.68;2.10;;;12.30;99.90;;;;;;6242129;23;20024;-82
2022/03/17 12:19:48;;;;;;;12.27;1.85;;;12.40;99.90;;;;;;6241486;23;20047;-82
2022/03/17 12:22:41;;;;;;;11.30;1.90;;;12.20;99.90;;;;;;6241081;23;20087;-81
2022/03/17 12:25:23;;;;;;;13.20;2.30;;;12.50;99.90;;;;;;6241060;23;20016;-83
2022/03/17 12:27:55;;;;;;;13.50;2.03;;;12.60;99.90;;;;;;6241024;23;20027;-84
2022/03/17 12:30:23;;;;;;;14.00;2.10;;;12.90;99.90;;;;;;6242773;23;20023;-84
2022/03/17 12:32:53;;;;;;;13.20;1.80;;;12.70;99.90;;;;;;6240805;23;20457;-79
2022/03/17 12:35:23;;;;;;;11.48;1.70;;;12.80;99.90;;;;;;6242765;23;20023;-83
2022/03/17 12:37:49;;;;;;;14.82;2.03;;;12.80;99.90;;;;;;6242137;23;20585;-82
2022/03/17 12:40:18;;;;;;;8.98;2.20;;;12.90;99.90;;;;;;6215202;23;20105;-83
2022/03/17 12:42:47;;;;;;;15.98;1.98;;;12.70;99.90;;;;;;6242786;23;20081;-84
2022/03/17 12:45:18;;;;;;;13.18;2.08;;;12.20;99.90;;;;;;6242775;22;20016;-85
2022/03/17 12:47:47;;;;;;;13.52;2.10;;;12.30;99.90;;;;;;6240668;23;20020;-82
2022/03/17 12:50:15;;;;;;;8.38;1.13;;;12.70;99.90;;;;;;6241966;22;20373;-83
2022/03/17 12:52:43;;;;;;;9.30;1.45;;;12.20;99.90;;;;;;6242215;22;20022;-83
2022/03/17 12:55:11;;;;;;;12.07;1.92;;;12.00;99.90;;;;;;6240670;23;20866;-82
2022/03/17 12:57:38;;;;;;;17.92;2.30;;;12.30;99.90;;;;;;6242650;23;20338;-82
2022/03/17 13:00:10;;;;;;;10.35;1.67;;;12.30;99.90;;;;;;6242545;23;20019;-85
2022/03/17 13:02:36;;;;;;;13.95;2.35;;;12.50;99.90;;;;;;6242542;23;20016;-83
2022/03/17 13:07:49;;;;;;;12.30;2.22;;;12.50;99.90;;;;;;6241388;23;20043;-81
2022/03/17 13:10:25;;;;;;;10.73;1.90;;;12.60;99.90;;;;;;6241971;23;20012;-82
2022/03/17 13:15:36;;;;;;;;;;;13.00;99.90;;;;;;6239743;23;20091;-83
2022/03/17 13:18:04;;;;;;;6.72;1.50;;;13.70;99.60;;;;;;6214848;23;20001;-83